sensor_id;sensor_type;location;lat;lon;timestamp;P1;durP1;ratioP1;P2;durP2;ratioP2
3081;SDS011;1551;51.046;7.010;2023-06-19T00:01:53;5.32;;;4.20;;
3081;SDS011;1551;51.046;7.010;2023-06-19T00:04:42;4.67;;;3.97;;
3081;SDS011;1551;51.046;7.010;2023-06-19T00:07:31;6.22;;;4.13;;
3081;SDS011;1551;51.046;7.010;2023-06-19T00:10:20;5.13;;;4.27;;
3081;SDS011;1551;51.046;7.010;2023-06-19T00:13:09;4.20;;;3.80;;
3081;SDS011;1551;51.046;7.010;2023-06-19T00:15:58;4.35;;;3.70;;
3081;SDS011;1551;51.046;7.010;2023-06-19T00:18:49;6.53;;;3.80;;
3081;SDS011;1551;51.046;7.010;2023-06-19T00:21:38;6.03;;;4.30;;
3081;SDS011;1551;51.046;7.010;2023-06-19T00:24:27;5.17;;;4.10;;
3081;SDS011;1551;51.046;7.010;2023-06-19T00:27:16;4.20;;;3.75;;
3081;SDS011;1551;51.046;7.010;2023-06-19T00:30:05;5.30;;;4.20;;
3081;SDS011;1551;51.046;7.010;2023-06-19T00:32:54;5.90;;;4.18;;
3081;SDS011;1551;51.046;7.010;2023-06-19T00:35:46;4.77;;;4.07;;
3081;SDS011;1551;51.046;7.010;2023-06-19T00:38:34;4.38;;;3.78;;
3081;SDS011;1551;51.046;7.010;2023-06-19T00:41:24;4.80;;;3.70;;
3081;SDS011;1551;51.046;7.010;2023-06-19T00:44:16;5.85;;;4.40;;
3081;SDS011;1551;51.046;7.010;2023-06-19T00:47:05;5.05;;;3.63;;
3081;SDS011;1551;51.046;7.010;2023-06-19T00:49:54;6.85;;;4.65;;
3081;SDS011;1551;51.046;7.010;2023-06-19T00:52:43;5.05;;;4.15;;
3081;SDS011;1551;51.046;7.010;2023-06-19T00:55:32;5.97;;;3.70;;
3081;SDS011;1551;51.046;7.010;2023-06-19T00:58:22;4.93;;;3.70;;
3081;SDS011;1551;51.046;7.010;2023-06-19T01:01:11;5.05;;;4.38;;
3081;SDS011;1551;51.046;7.010;2023-06-19T01:04:00;5.30;;;3.90;;
3081;SDS011;1551;51.046;7.010;2023-06-19T01:06:52;5.18;;;3.53;;
3081;SDS011;1551;51.046;7.010;2023-06-19T01:09:48;4.88;;;4.22;;
3081;SDS011;1551;51.046;7.010;2023-06-19T01:12:43;4.90;;;4.20;;
3081;SDS011;1551;51.046;7.010;2023-06-19T01:15:39;7.40;;;4.68;;
3081;SDS011;1551;51.046;7.010;2023-06-19T01:18:30;5.43;;;4.60;;
3081;SDS011;1551;51.046;7.010;2023-06-19T01:21:21;5.37;;;4.40;;
3081;SDS011;1551;51.046;7.010;2023-06-19T01:24:13;4.97;;;4.13;;
3081;SDS011;1551;51.046;7.010;2023-06-19T01:27:02;4.90;;;4.28;;
3081;SDS011;1551;51.046;7.010;2023-06-19T01:29:52;5.07;;;4.50;;
3081;SDS011;1551;51.046;7.010;2023-06-19T01:36:06;5.30;;;4.60;;
3081;SDS011;1551;51.046;7.010;2023-06-19T01:38:56;5.50;;;4.65;;
3081;SDS011;1551;51.046;7.010;2023-06-19T01:41:46;6.60;;;4.93;;
3081;SDS011;1551;51.046;7.010;2023-06-19T01:44:36;6.25;;;4.85;;
3081;SDS011;1551;51.046;7.010;2023-06-19T01:47:25;5.60;;;5.00;;
3081;SDS011;1551;51.046;7.010;2023-06-19T01:50:14;6.28;;;5.10;;
3081;SDS011;1551;51.046;7.010;2023-06-19T01:53:03;5.82;;;5.22;;
3081;SDS011;1551;51.046;7.010;2023-06-19T01:55:52;5.28;;;4.78;;
3081;SDS011;1551;51.046;7.010;2023-06-19T01:58:41;5.40;;;4.80;;
3081;SDS011;1551;51.046;7.010;2023-06-19T02:01:30;5.70;;;4.93;;
3081;SDS011;1551;51.046;7.010;2023-06-19T02:04:19;5.57;;;4.93;;
3081;SDS011;1551;51.046;7.010;2023-06-19T02:07:08;5.90;;;5.30;;
3081;SDS011;1551;51.046;7.010;2023-06-19T02:09:58;5.43;;;4.60;;
3081;SDS011;1551;51.046;7.010;2023-06-19T02:12:47;5.72;;;4.82;;
3081;SDS011;1551;51.046;7.010;2023-06-19T02:15:36;7.00;;;5.50;;
3081;SDS011;1551;51.046;7.010;2023-06-19T02:18:25;7.30;;;5.60;;
3081;SDS011;1551;51.046;7.010;2023-06-19T02:21:14;5.67;;;5.17;;
3081;SDS011;1551;51.046;7.010;2023-06-19T02:24:03;5.88;;;5.28;;
3081;SDS011;1551;51.046;7.010;2023-06-19T02:26:52;7.28;;;5.50;;
3081;SDS011;1551;51.046;7.010;2023-06-19T02:29:41;5.97;;;5.20;;
3081;SDS011;1551;51.046;7.010;2023-06-19T02:32:31;6.20;;;5.60;;
3081;SDS011;1551;51.046;7.010;2023-06-19T02:35:19;6.30;;;5.70;;
3081;SDS011;1551;51.046;7.010;2023-06-19T02:38:09;6.22;;;5.50;;
3081;SDS011;1551;51.046;7.010;2023-06-19T02:40:57;6.30;;;5.65;;
3081;SDS011;1551;51.046;7.010;2023-06-19T02:43:46;6.95;;;6.25;;
3081;SDS011;1551;51.046;7.010;2023-06-19T02:46:35;7.13;;;5.93;;
3081;SDS011;1551;51.046;7.010;2023-06-19T02:49:24;6.43;;;5.83;;
3081;SDS011;1551;51.046;7.010;2023-06-19T02:52:13;7.30;;;6.30;;
3081;SDS011;1551;51.046;7.010;2023-06-19T02:55:02;8.00;;;6.20;;
3081;SDS011;1551;51.046;7.010;2023-06-19T02:57:52;6.20;;;5.60;;
3081;SDS011;1551;51.046;7.010;2023-06-19T03:00:42;7.30;;;6.50;;
3081;SDS011;1551;51.046;7.010;2023-06-19T03:03:31;6.88;;;6.18;;
3081;SDS011;1551;51.046;7.010;2023-06-19T03:06:20;6.90;;;5.78;;
3081;SDS011;1551;51.046;7.010;2023-06-19T03:09:09;6.30;;;5.70;;
3081;SDS011;1551;51.046;7.010;2023-06-19T03:12:02;6.50;;;5.80;;
3081;SDS011;1551;51.046;7.010;2023-06-19T03:14:51;7.50;;;6.38;;
3081;SDS011;1551;51.046;7.010;2023-06-19T03:17:40;7.10;;;6.40;;
3081;SDS011;1551;51.046;7.010;2023-06-19T03:20:33;6.70;;;6.00;;
3081;SDS011;1551;51.046;7.010;2023-06-19T03:23:23;6.88;;;6.18;;
3081;SDS011;1551;51.046;7.010;2023-06-19T03:26:12;6.50;;;5.90;;
3081;SDS011;1551;51.046;7.010;2023-06-19T03:29:03;6.57;;;5.90;;
3081;SDS011;1551;51.046;7.010;2023-06-19T03:32:03;7.43;;;5.50;;
3081;SDS011;1551;51.046;7.010;2023-06-19T03:34:55;7.40;;;6.45;;
3081;SDS011;1551;51.046;7.010;2023-06-19T03:37:45;6.80;;;6.10;;
3081;SDS011;1551;51.046;7.010;2023-06-19T03:40:35;6.50;;;5.70;;
3081;SDS011;1551;51.046;7.010;2023-06-19T03:43:30;7.10;;;6.40;;
3081;SDS011;1551;51.046;7.010;2023-06-19T03:46:19;7.55;;;6.75;;
3081;SDS011;1551;51.046;7.010;2023-06-19T03:49:09;7.03;;;6.32;;
3081;SDS011;1551;51.046;7.010;2023-06-19T03:51:58;7.07;;;6.38;;
3081;SDS011;1551;51.046;7.010;2023-06-19T03:54:47;7.05;;;6.35;;
3081;SDS011;1551;51.046;7.010;2023-06-19T03:57:36;8.02;;;6.40;;
3081;SDS011;1551;51.046;7.010;2023-06-19T04:00:25;6.93;;;5.38;;
3081;SDS011;1551;51.046;7.010;2023-06-19T04:03:15;5.75;;;4.10;;
3081;SDS011;1551;51.046;7.010;2023-06-19T04:06:04;5.57;;;3.30;;
3081;SDS011;1551;51.046;7.010;2023-06-19T04:08:53;4.55;;;3.78;;
3081;SDS011;1551;51.046;7.010;2023-06-19T04:11:42;5.13;;;3.47;;
3081;SDS011;1551;51.046;7.010;2023-06-19T04:14:31;4.95;;;3.50;;
3081;SDS011;1551;51.046;7.010;2023-06-19T04:17:21;4.63;;;3.50;;
3081;SDS011;1551;51.046;7.010;2023-06-19T04:20:11;5.40;;;3.60;;
3081;SDS011;1551;51.046;7.010;2023-06-19T04:23:01;4.03;;;3.28;;
3081;SDS011;1551;51.046;7.010;2023-06-19T04:25:51;5.63;;;3.40;;
3081;SDS011;1551;51.046;7.010;2023-06-19T04:28:40;4.20;;;3.30;;
3081;SDS011;1551;51.046;7.010;2023-06-19T04:31:30;7.05;;;3.20;;
3081;SDS011;1551;51.046;7.010;2023-06-19T04:34:21;5.10;;;3.10;;
3081;SDS011;1551;51.046;7.010;2023-06-19T04:37:10;3.97;;;2.80;;
3081;SDS011;1551;51.046;7.010;2023-06-19T04:39:59;4.10;;;3.08;;
3081;SDS011;1551;51.046;7.010;2023-06-19T04:42:48;5.93;;;3.30;;
3081;SDS011;1551;51.046;7.010;2023-06-19T04:45:37;5.05;;;3.10;;
3081;SDS011;1551;51.046;7.010;2023-06-19T04:48:27;4.25;;;2.85;;
3081;SDS011;1551;51.046;7.010;2023-06-19T04:51:19;4.22;;;3.20;;
3081;SDS011;1551;51.046;7.010;2023-06-19T04:54:11;4.72;;;3.00;;
3081;SDS011;1551;51.046;7.010;2023-06-19T04:56:59;4.10;;;3.15;;
3081;SDS011;1551;51.046;7.010;2023-06-19T04:59:48;3.90;;;3.00;;
3081;SDS011;1551;51.046;7.010;2023-06-19T05:02:37;4.75;;;2.75;;
3081;SDS011;1551;51.046;7.010;2023-06-19T05:05:30;4.40;;;2.40;;
3081;SDS011;1551;51.046;7.010;2023-06-19T05:08:18;3.40;;;2.53;;
3081;SDS011;1551;51.046;7.010;2023-06-19T05:11:08;4.38;;;2.97;;
3081;SDS011;1551;51.046;7.010;2023-06-19T05:13:57;4.32;;;3.20;;
3081;SDS011;1551;51.046;7.010;2023-06-19T05:16:45;3.58;;;2.50;;
3081;SDS011;1551;51.046;7.010;2023-06-19T05:19:34;5.30;;;3.30;;
3081;SDS011;1551;51.046;7.010;2023-06-19T05:22:23;4.40;;;2.73;;
3081;SDS011;1551;51.046;7.010;2023-06-19T05:25:13;3.80;;;2.80;;
3081;SDS011;1551;51.046;7.010;2023-06-19T05:28:02;5.73;;;2.70;;
3081;SDS011;1551;51.046;7.010;2023-06-19T05:30:50;4.50;;;2.88;;
3081;SDS011;1551;51.046;7.010;2023-06-19T05:33:40;4.63;;;3.00;;
3081;SDS011;1551;51.046;7.010;2023-06-19T05:36:29;4.78;;;2.67;;
3081;SDS011;1551;51.046;7.010;2023-06-19T05:39:18;3.50;;;2.50;;
3081;SDS011;1551;51.046;7.010;2023-06-19T05:42:08;4.97;;;2.47;;
3081;SDS011;1551;51.046;7.010;2023-06-19T05:44:56;4.93;;;2.92;;
3081;SDS011;1551;51.046;7.010;2023-06-19T05:47:45;4.40;;;2.60;;
3081;SDS011;1551;51.046;7.010;2023-06-19T05:50:34;3.92;;;3.00;;
3081;SDS011;1551;51.046;7.010;2023-06-19T05:53:23;5.47;;;2.40;;
3081;SDS011;1551;51.046;7.010;2023-06-19T05:56:13;4.45;;;2.70;;
3081;SDS011;1551;51.046;7.010;2023-06-19T05:59:02;3.63;;;2.35;;
3081;SDS011;1551;51.046;7.010;2023-06-19T06:01:51;4.80;;;2.58;;
3081;SDS011;1551;51.046;7.010;2023-06-19T06:04:41;4.07;;;2.10;;
3081;SDS011;1551;51.046;7.010;2023-06-19T06:07:31;4.57;;;3.35;;
3081;SDS011;1551;51.046;7.010;2023-06-19T06:10:22;4.95;;;2.35;;
3081;SDS011;1551;51.046;7.010;2023-06-19T06:13:13;3.70;;;1.90;;
3081;SDS011;1551;51.046;7.010;2023-06-19T06:16:02;4.85;;;1.80;;
3081;SDS011;1551;51.046;7.010;2023-06-19T06:18:51;6.47;;;2.25;;
3081;SDS011;1551;51.046;7.010;2023-06-19T06:21:40;2.80;;;2.00;;
3081;SDS011;1551;51.046;7.010;2023-06-19T06:24:30;3.97;;;1.90;;
3081;SDS011;1551;51.046;7.010;2023-06-19T06:27:18;3.90;;;2.13;;
3081;SDS011;1551;51.046;7.010;2023-06-19T06:30:08;3.40;;;1.70;;
3081;SDS011;1551;51.046;7.010;2023-06-19T06:32:57;4.30;;;1.60;;
3081;SDS011;1551;51.046;7.010;2023-06-19T06:35:46;3.30;;;1.42;;
3081;SDS011;1551;51.046;7.010;2023-06-19T06:38:36;3.50;;;1.60;;
3081;SDS011;1551;51.046;7.010;2023-06-19T06:41:25;5.30;;;1.45;;
3081;SDS011;1551;51.046;7.010;2023-06-19T06:44:14;4.32;;;2.17;;
3081;SDS011;1551;51.046;7.010;2023-06-19T06:47:03;2.65;;;1.40;;
3081;SDS011;1551;51.046;7.010;2023-06-19T06:49:52;3.20;;;1.60;;
3081;SDS011;1551;51.046;7.010;2023-06-19T06:52:41;3.00;;;1.33;;
3081;SDS011;1551;51.046;7.010;2023-06-19T06:55:30;3.47;;;1.85;;
3081;SDS011;1551;51.046;7.010;2023-06-19T06:58:18;5.30;;;1.60;;
3081;SDS011;1551;51.046;7.010;2023-06-19T07:01:07;3.23;;;1.73;;
3081;SDS011;1551;51.046;7.010;2023-06-19T07:03:56;3.80;;;1.60;;
3081;SDS011;1551;51.046;7.010;2023-06-19T07:06:45;2.50;;;1.50;;
3081;SDS011;1551;51.046;7.010;2023-06-19T07:09:34;2.90;;;1.67;;
3081;SDS011;1551;51.046;7.010;2023-06-19T07:12:23;3.67;;;2.00;;
3081;SDS011;1551;51.046;7.010;2023-06-19T07:15:12;3.30;;;1.60;;
3081;SDS011;1551;51.046;7.010;2023-06-19T07:18:01;3.13;;;1.60;;
3081;SDS011;1551;51.046;7.010;2023-06-19T07:20:50;4.82;;;1.60;;
3081;SDS011;1551;51.046;7.010;2023-06-19T07:23:40;3.10;;;1.90;;
3081;SDS011;1551;51.046;7.010;2023-06-19T07:26:31;2.60;;;1.40;;
3081;SDS011;1551;51.046;7.010;2023-06-19T07:29:20;3.05;;;1.60;;
3081;SDS011;1551;51.046;7.010;2023-06-19T07:32:10;2.70;;;1.40;;
3081;SDS011;1551;51.046;7.010;2023-06-19T07:34:59;4.10;;;1.42;;
3081;SDS011;1551;51.046;7.010;2023-06-19T07:37:48;3.92;;;1.92;;
3081;SDS011;1551;51.046;7.010;2023-06-19T07:40:37;2.90;;;1.20;;
3081;SDS011;1551;51.046;7.010;2023-06-19T07:43:26;4.00;;;1.40;;
3081;SDS011;1551;51.046;7.010;2023-06-19T07:46:15;4.60;;;1.70;;
3081;SDS011;1551;51.046;7.010;2023-06-19T07:49:04;4.10;;;1.40;;
3081;SDS011;1551;51.046;7.010;2023-06-19T07:51:53;3.00;;;1.35;;
3081;SDS011;1551;51.046;7.010;2023-06-19T07:54:50;3.95;;;1.60;;
3081;SDS011;1551;51.046;7.010;2023-06-19T07:57:42;2.58;;;1.40;;
3081;SDS011;1551;51.046;7.010;2023-06-19T08:00:31;5.13;;;2.10;;
3081;SDS011;1551;51.046;7.010;2023-06-19T08:03:20;3.45;;;2.20;;
3081;SDS011;1551;51.046;7.010;2023-06-19T08:06:10;3.30;;;2.10;;
3081;SDS011;1551;51.046;7.010;2023-06-19T08:08:59;3.10;;;1.80;;
3081;SDS011;1551;51.046;7.010;2023-06-19T08:11:48;3.35;;;1.90;;
3081;SDS011;1551;51.046;7.010;2023-06-19T08:14:37;4.63;;;1.85;;
3081;SDS011;1551;51.046;7.010;2023-06-19T08:17:27;3.72;;;1.65;;
3081;SDS011;1551;51.046;7.010;2023-06-19T08:20:15;2.97;;;1.92;;
3081;SDS011;1551;51.046;7.010;2023-06-19T08:23:04;3.30;;;1.90;;
3081;SDS011;1551;51.046;7.010;2023-06-19T08:25:53;3.00;;;1.90;;
3081;SDS011;1551;51.046;7.010;2023-06-19T08:28:42;4.10;;;1.70;;
3081;SDS011;1551;51.046;7.010;2023-06-19T08:31:31;3.25;;;1.95;;
3081;SDS011;1551;51.046;7.010;2023-06-19T08:34:22;3.42;;;1.70;;
3081;SDS011;1551;51.046;7.010;2023-06-19T08:37:11;4.70;;;1.60;;
3081;SDS011;1551;51.046;7.010;2023-06-19T08:40:00;2.78;;;1.75;;
3081;SDS011;1551;51.046;7.010;2023-06-19T08:42:49;2.97;;;1.90;;
3081;SDS011;1551;51.046;7.010;2023-06-19T08:45:41;2.90;;;1.67;;
3081;SDS011;1551;51.046;7.010;2023-06-19T08:48:29;3.53;;;1.40;;
3081;SDS011;1551;51.046;7.010;2023-06-19T08:51:18;3.65;;;1.98;;
3081;SDS011;1551;51.046;7.010;2023-06-19T08:54:07;2.70;;;1.90;;
3081;SDS011;1551;51.046;7.010;2023-06-19T08:57:00;4.20;;;2.10;;
3081;SDS011;1551;51.046;7.010;2023-06-19T08:59:52;3.87;;;2.40;;
3081;SDS011;1551;51.046;7.010;2023-06-19T09:02:41;3.60;;;1.90;;
3081;SDS011;1551;51.046;7.010;2023-06-19T09:05:33;3.05;;;2.22;;
3081;SDS011;1551;51.046;7.010;2023-06-19T09:08:32;4.50;;;2.20;;
3081;SDS011;1551;51.046;7.010;2023-06-19T09:11:21;3.00;;;2.10;;
3081;SDS011;1551;51.046;7.010;2023-06-19T09:14:10;3.10;;;2.40;;
3081;SDS011;1551;51.046;7.010;2023-06-19T09:17:00;6.00;;;2.90;;
3081;SDS011;1551;51.046;7.010;2023-06-19T09:19:51;6.65;;;3.42;;
3081;SDS011;1551;51.046;7.010;2023-06-19T09:22:43;4.25;;;3.70;;
3081;SDS011;1551;51.046;7.010;2023-06-19T09:25:42;4.63;;;3.30;;
3081;SDS011;1551;51.046;7.010;2023-06-19T09:28:33;5.90;;;3.50;;
3081;SDS011;1551;51.046;7.010;2023-06-19T09:31:30;6.53;;;3.25;;
3081;SDS011;1551;51.046;7.010;2023-06-19T09:34:21;4.47;;;3.17;;
3081;SDS011;1551;51.046;7.010;2023-06-19T09:37:11;4.15;;;3.28;;
3081;SDS011;1551;51.046;7.010;2023-06-19T09:40:01;6.20;;;3.40;;
3081;SDS011;1551;51.046;7.010;2023-06-19T09:43:01;4.05;;;3.10;;
3081;SDS011;1551;51.046;7.010;2023-06-19T09:45:54;5.93;;;3.30;;
3081;SDS011;1551;51.046;7.010;2023-06-19T09:48:47;4.72;;;3.00;;
3081;SDS011;1551;51.046;7.010;2023-06-19T09:51:37;4.80;;;3.70;;
3081;SDS011;1551;51.046;7.010;2023-06-19T09:54:29;3.90;;;3.17;;
3081;SDS011;1551;51.046;7.010;2023-06-19T09:57:20;4.30;;;3.10;;
3081;SDS011;1551;51.046;7.010;2023-06-19T10:00:10;4.72;;;3.03;;
3081;SDS011;1551;51.046;7.010;2023-06-19T10:03:04;3.53;;;3.00;;
3081;SDS011;1551;51.046;7.010;2023-06-19T10:06:02;4.57;;;3.50;;
3081;SDS011;1551;51.046;7.010;2023-06-19T10:08:52;5.20;;;3.10;;
3081;SDS011;1551;51.046;7.010;2023-06-19T10:11:45;7.30;;;3.20;;
3081;SDS011;1551;51.046;7.010;2023-06-19T10:14:44;5.00;;;2.90;;
3081;SDS011;1551;51.046;7.010;2023-06-19T10:17:36;6.50;;;3.60;;
3081;SDS011;1551;51.046;7.010;2023-06-19T10:20:31;4.80;;;3.10;;
3081;SDS011;1551;51.046;7.010;2023-06-19T10:23:23;4.37;;;3.20;;
3081;SDS011;1551;51.046;7.010;2023-06-19T10:26:15;4.50;;;3.47;;
3081;SDS011;1551;51.046;7.010;2023-06-19T10:29:14;5.03;;;3.60;;
3081;SDS011;1551;51.046;7.010;2023-06-19T10:32:04;7.00;;;3.30;;
3081;SDS011;1551;51.046;7.010;2023-06-19T10:34:54;6.93;;;3.33;;
3081;SDS011;1551;51.046;7.010;2023-06-19T10:37:44;4.40;;;3.00;;
3081;SDS011;1551;51.046;7.010;2023-06-19T10:40:35;4.47;;;3.08;;
3081;SDS011;1551;51.046;7.010;2023-06-19T10:43:25;4.10;;;3.40;;
3081;SDS011;1551;51.046;7.010;2023-06-19T10:46:21;6.57;;;3.35;;
3081;SDS011;1551;51.046;7.010;2023-06-19T10:49:10;4.75;;;2.90;;
3081;SDS011;1551;51.046;7.010;2023-06-19T10:52:01;4.70;;;3.20;;
3081;SDS011;1551;51.046;7.010;2023-06-19T10:54:53;4.97;;;3.40;;
3081;SDS011;1551;51.046;7.010;2023-06-19T10:57:46;4.68;;;3.60;;
3081;SDS011;1551;51.046;7.010;2023-06-19T11:00:37;5.93;;;2.97;;
3081;SDS011;1551;51.046;7.010;2023-06-19T11:03:27;4.67;;;3.00;;
3081;SDS011;1551;51.046;7.010;2023-06-19T11:06:19;4.38;;;2.95;;
3081;SDS011;1551;51.046;7.010;2023-06-19T11:09:10;5.15;;;3.42;;
3081;SDS011;1551;51.046;7.010;2023-06-19T11:11:59;4.00;;;3.15;;
3081;SDS011;1551;51.046;7.010;2023-06-19T11:14:50;5.20;;;3.17;;
3081;SDS011;1551;51.046;7.010;2023-06-19T11:17:39;6.78;;;3.58;;
3081;SDS011;1551;51.046;7.010;2023-06-19T11:20:28;5.27;;;3.17;;
3081;SDS011;1551;51.046;7.010;2023-06-19T11:23:28;3.63;;;2.80;;
3081;SDS011;1551;51.046;7.010;2023-06-19T11:26:18;3.97;;;3.10;;
3081;SDS011;1551;51.046;7.010;2023-06-19T11:29:17;4.50;;;2.92;;
3081;SDS011;1551;51.046;7.010;2023-06-19T11:32:14;4.28;;;3.00;;
3081;SDS011;1551;51.046;7.010;2023-06-19T11:35:04;5.20;;;2.80;;
3081;SDS011;1551;51.046;7.010;2023-06-19T11:37:56;5.35;;;2.97;;
3081;SDS011;1551;51.046;7.010;2023-06-19T11:40:45;6.18;;;2.90;;
3081;SDS011;1551;51.046;7.010;2023-06-19T11:43:35;6.87;;;3.30;;
3081;SDS011;1551;51.046;7.010;2023-06-19T11:46:28;5.13;;;3.20;;
3081;SDS011;1551;51.046;7.010;2023-06-19T11:49:18;3.67;;;2.88;;
3081;SDS011;1551;51.046;7.010;2023-06-19T11:52:09;4.35;;;3.40;;
3081;SDS011;1551;51.046;7.010;2023-06-19T11:54:58;4.67;;;3.20;;
3081;SDS011;1551;51.046;7.010;2023-06-19T11:57:47;5.07;;;3.00;;
3081;SDS011;1551;51.046;7.010;2023-06-19T12:00:36;4.70;;;3.20;;
3081;SDS011;1551;51.046;7.010;2023-06-19T12:03:25;5.67;;;3.13;;
3081;SDS011;1551;51.046;7.010;2023-06-19T12:06:16;3.72;;;2.88;;
3081;SDS011;1551;51.046;7.010;2023-06-19T12:09:06;4.18;;;3.25;;
3081;SDS011;1551;51.046;7.010;2023-06-19T12:11:55;4.95;;;3.33;;
3081;SDS011;1551;51.046;7.010;2023-06-19T12:14:44;6.10;;;2.80;;
3081;SDS011;1551;51.046;7.010;2023-06-19T12:17:33;4.40;;;3.30;;
3081;SDS011;1551;51.046;7.010;2023-06-19T12:20:22;6.68;;;3.35;;
3081;SDS011;1551;51.046;7.010;2023-06-19T12:23:11;4.68;;;3.30;;
3081;SDS011;1551;51.046;7.010;2023-06-19T12:26:00;5.85;;;3.00;;
3081;SDS011;1551;51.046;7.010;2023-06-19T12:28:50;6.07;;;3.25;;
3081;SDS011;1551;51.046;7.010;2023-06-19T12:31:39;5.90;;;3.33;;
3081;SDS011;1551;51.046;7.010;2023-06-19T12:34:28;5.45;;;3.30;;
3081;SDS011;1551;51.046;7.010;2023-06-19T12:37:17;3.70;;;3.30;;
3081;SDS011;1551;51.046;7.010;2023-06-19T12:40:07;4.10;;;3.10;;
3081;SDS011;1551;51.046;7.010;2023-06-19T12:42:59;5.07;;;3.00;;
3081;SDS011;1551;51.046;7.010;2023-06-19T12:45:48;5.43;;;3.28;;
3081;SDS011;1551;51.046;7.010;2023-06-19T12:48:37;5.57;;;3.50;;
3081;SDS011;1551;51.046;7.010;2023-06-19T12:51:26;5.50;;;3.30;;
3081;SDS011;1551;51.046;7.010;2023-06-19T12:54:15;4.60;;;3.38;;
3081;SDS011;1551;51.046;7.010;2023-06-19T12:57:04;4.40;;;3.30;;
3081;SDS011;1551;51.046;7.010;2023-06-19T12:59:53;5.00;;;3.30;;
3081;SDS011;1551;51.046;7.010;2023-06-19T13:02:42;3.40;;;2.50;;
3081;SDS011;1551;51.046;7.010;2023-06-19T13:05:32;4.90;;;3.10;;
3081;SDS011;1551;51.046;7.010;2023-06-19T13:08:21;4.20;;;3.00;;
3081;SDS011;1551;51.046;7.010;2023-06-19T13:11:10;4.30;;;2.80;;
3081;SDS011;1551;51.046;7.010;2023-06-19T13:14:00;4.97;;;3.08;;
3081;SDS011;1551;51.046;7.010;2023-06-19T13:16:49;5.20;;;3.35;;
3081;SDS011;1551;51.046;7.010;2023-06-19T13:19:38;4.38;;;3.40;;
3081;SDS011;1551;51.046;7.010;2023-06-19T13:22:27;5.55;;;3.20;;
3081;SDS011;1551;51.046;7.010;2023-06-19T13:25:16;4.60;;;3.22;;
3081;SDS011;1551;51.046;7.010;2023-06-19T13:28:05;4.00;;;3.10;;
3081;SDS011;1551;51.046;7.010;2023-06-19T13:30:54;5.82;;;3.40;;
3081;SDS011;1551;51.046;7.010;2023-06-19T13:33:43;5.47;;;4.03;;
3081;SDS011;1551;51.046;7.010;2023-06-19T13:36:31;4.90;;;3.05;;
3081;SDS011;1551;51.046;7.010;2023-06-19T13:39:20;4.90;;;3.00;;
3081;SDS011;1551;51.046;7.010;2023-06-19T13:42:09;5.43;;;3.63;;
3081;SDS011;1551;51.046;7.010;2023-06-19T13:44:59;4.53;;;3.65;;
3081;SDS011;1551;51.046;7.010;2023-06-19T13:47:48;4.15;;;3.30;;
3081;SDS011;1551;51.046;7.010;2023-06-19T13:50:37;5.45;;;3.80;;
3081;SDS011;1551;51.046;7.010;2023-06-19T13:53:26;3.97;;;3.17;;
3081;SDS011;1551;51.046;7.010;2023-06-19T13:56:17;4.33;;;3.33;;
3081;SDS011;1551;51.046;7.010;2023-06-19T13:59:06;6.43;;;3.40;;
3081;SDS011;1551;51.046;7.010;2023-06-19T14:01:55;4.30;;;2.80;;
3081;SDS011;1551;51.046;7.010;2023-06-19T14:04:45;4.88;;;3.50;;
3081;SDS011;1551;51.046;7.010;2023-06-19T14:07:34;6.43;;;3.50;;
3081;SDS011;1551;51.046;7.010;2023-06-19T14:10:23;5.22;;;3.40;;
3081;SDS011;1551;51.046;7.010;2023-06-19T14:13:12;4.80;;;3.10;;
3081;SDS011;1551;51.046;7.010;2023-06-19T14:16:01;5.55;;;3.53;;
3081;SDS011;1551;51.046;7.010;2023-06-19T14:18:51;6.90;;;3.55;;
3081;SDS011;1551;51.046;7.010;2023-06-19T14:21:40;6.85;;;3.40;;
3081;SDS011;1551;51.046;7.010;2023-06-19T14:24:29;4.53;;;3.20;;
3081;SDS011;1551;51.046;7.010;2023-06-19T14:27:18;3.45;;;2.70;;
3081;SDS011;1551;51.046;7.010;2023-06-19T14:30:07;4.72;;;3.33;;
3081;SDS011;1551;51.046;7.010;2023-06-19T14:32:59;4.97;;;2.90;;
3081;SDS011;1551;51.046;7.010;2023-06-19T14:35:48;7.57;;;3.30;;
3081;SDS011;1551;51.046;7.010;2023-06-19T14:38:37;4.40;;;3.20;;
3081;SDS011;1551;51.046;7.010;2023-06-19T14:41:26;5.00;;;3.40;;
3081;SDS011;1551;51.046;7.010;2023-06-19T14:44:15;4.53;;;2.70;;
3081;SDS011;1551;51.046;7.010;2023-06-19T14:47:04;4.93;;;3.07;;
3081;SDS011;1551;51.046;7.010;2023-06-19T14:49:53;4.93;;;3.20;;
3081;SDS011;1551;51.046;7.010;2023-06-19T14:52:42;4.40;;;3.30;;
3081;SDS011;1551;51.046;7.010;2023-06-19T14:55:31;3.72;;;3.10;;
3081;SDS011;1551;51.046;7.010;2023-06-19T14:58:20;4.25;;;3.20;;
3081;SDS011;1551;51.046;7.010;2023-06-19T15:01:09;5.40;;;3.20;;
3081;SDS011;1551;51.046;7.010;2023-06-19T15:03:59;5.70;;;2.92;;
3081;SDS011;1551;51.046;7.010;2023-06-19T15:06:48;4.78;;;3.15;;
3081;SDS011;1551;51.046;7.010;2023-06-19T15:09:37;5.43;;;3.03;;
3081;SDS011;1551;51.046;7.010;2023-06-19T15:12:25;4.05;;;3.30;;
3081;SDS011;1551;51.046;7.010;2023-06-19T15:15:14;4.00;;;3.00;;
3081;SDS011;1551;51.046;7.010;2023-06-19T15:18:03;3.70;;;2.97;;
3081;SDS011;1551;51.046;7.010;2023-06-19T15:20:52;4.05;;;3.22;;
3081;SDS011;1551;51.046;7.010;2023-06-19T15:23:41;3.70;;;2.90;;
3081;SDS011;1551;51.046;7.010;2023-06-19T15:26:31;4.38;;;3.10;;
3081;SDS011;1551;51.046;7.010;2023-06-19T15:29:20;4.40;;;2.78;;
3081;SDS011;1551;51.046;7.010;2023-06-19T15:32:08;4.00;;;3.20;;
3081;SDS011;1551;51.046;7.010;2023-06-19T15:34:58;4.90;;;2.97;;
3081;SDS011;1551;51.046;7.010;2023-06-19T15:37:47;4.10;;;3.10;;
3081;SDS011;1551;51.046;7.010;2023-06-19T15:40:36;4.67;;;3.00;;
3081;SDS011;1551;51.046;7.010;2023-06-19T15:43:26;4.60;;;3.10;;
3081;SDS011;1551;51.046;7.010;2023-06-19T15:46:17;5.60;;;2.70;;
3081;SDS011;1551;51.046;7.010;2023-06-19T15:49:06;4.43;;;2.97;;
3081;SDS011;1551;51.046;7.010;2023-06-19T15:51:55;4.10;;;2.92;;
3081;SDS011;1551;51.046;7.010;2023-06-19T15:54:45;5.53;;;3.20;;
3081;SDS011;1551;51.046;7.010;2023-06-19T15:57:34;6.50;;;3.30;;
3081;SDS011;1551;51.046;7.010;2023-06-19T16:00:23;4.15;;;2.50;;
3081;SDS011;1551;51.046;7.010;2023-06-19T16:03:13;3.80;;;3.00;;
3081;SDS011;1551;51.046;7.010;2023-06-19T16:06:02;4.30;;;3.30;;
3081;SDS011;1551;51.046;7.010;2023-06-19T16:08:51;4.07;;;3.10;;
3081;SDS011;1551;51.046;7.010;2023-06-19T16:11:40;4.07;;;3.08;;
3081;SDS011;1551;51.046;7.010;2023-06-19T16:14:32;5.90;;;2.90;;
3081;SDS011;1551;51.046;7.010;2023-06-19T16:17:22;5.65;;;3.40;;
3081;SDS011;1551;51.046;7.010;2023-06-19T16:20:11;4.38;;;2.90;;
3081;SDS011;1551;51.046;7.010;2023-06-19T16:23:00;3.92;;;2.80;;
3081;SDS011;1551;51.046;7.010;2023-06-19T16:25:49;5.25;;;3.05;;
3081;SDS011;1551;51.046;7.010;2023-06-19T16:28:38;4.63;;;3.10;;
3081;SDS011;1551;51.046;7.010;2023-06-19T16:31:27;4.57;;;3.33;;
3081;SDS011;1551;51.046;7.010;2023-06-19T16:34:16;4.95;;;2.75;;
3081;SDS011;1551;51.046;7.010;2023-06-19T16:37:05;4.90;;;3.00;;
3081;SDS011;1551;51.046;7.010;2023-06-19T16:39:54;4.45;;;3.15;;
3081;SDS011;1551;51.046;7.010;2023-06-19T16:42:43;4.10;;;2.90;;
3081;SDS011;1551;51.046;7.010;2023-06-19T16:45:32;4.40;;;3.10;;
3081;SDS011;1551;51.046;7.010;2023-06-19T16:48:21;4.95;;;3.15;;
3081;SDS011;1551;51.046;7.010;2023-06-19T16:51:10;3.90;;;3.00;;
3081;SDS011;1551;51.046;7.010;2023-06-19T16:53:59;6.30;;;3.22;;
3081;SDS011;1551;51.046;7.010;2023-06-19T16:56:48;3.65;;;2.88;;
3081;SDS011;1551;51.046;7.010;2023-06-19T16:59:37;4.00;;;2.87;;
3081;SDS011;1551;51.046;7.010;2023-06-19T17:02:26;4.90;;;3.27;;
3081;SDS011;1551;51.046;7.010;2023-06-19T17:05:15;5.97;;;2.75;;
3081;SDS011;1551;51.046;7.010;2023-06-19T17:08:04;4.28;;;2.90;;
3081;SDS011;1551;51.046;7.010;2023-06-19T17:10:53;5.67;;;3.00;;
3081;SDS011;1551;51.046;7.010;2023-06-19T17:13:42;4.45;;;3.08;;
3081;SDS011;1551;51.046;7.010;2023-06-19T17:16:31;4.43;;;2.90;;
3081;SDS011;1551;51.046;7.010;2023-06-19T17:19:20;5.22;;;2.83;;
3081;SDS011;1551;51.046;7.010;2023-06-19T17:22:09;4.28;;;3.10;;
3081;SDS011;1551;51.046;7.010;2023-06-19T17:24:58;6.88;;;3.20;;
3081;SDS011;1551;51.046;7.010;2023-06-19T17:27:47;5.50;;;2.90;;
3081;SDS011;1551;51.046;7.010;2023-06-19T17:30:35;4.45;;;3.42;;
3081;SDS011;1551;51.046;7.010;2023-06-19T17:33:26;6.20;;;3.50;;
3081;SDS011;1551;51.046;7.010;2023-06-19T17:36:15;3.90;;;2.88;;
3081;SDS011;1551;51.046;7.010;2023-06-19T17:39:04;4.30;;;2.90;;